Time;durP1;ratioP1;P1;durP2;ratioP2;P2;SDS_P1;SDS_P2;PMS_P1;PMS_P2;Temp;Humidity;BMP_temperature;BMP_pressure;BME280_temperature;BME280_humidity;BME280_pressure;Samples;Min_cycle;Max_cycle;Signal;HPM_P1;HPM_P2
2021/12/05 00:24:11;;;;;;;0.20;0.20;;;;;;;2.01;74.81;97259.69;6245627;23;20083;-73
2021/12/05 00:26:37;;;;;;;0.20;0.20;;;;;;;2.00;75.05;97263.44;6246401;23;20107;-74
2021/12/05 00:29:25;;;;;;;0.20;0.20;;;;;;;1.99;74.99;97267.22;6245789;23;20108;-73
2021/12/05 00:32:33;;;;;;;0.20;0.20;;;;;;;1.96;75.06;97273.06;6244804;23;20008;-74
2021/12/05 01:01:29;;;;;;;0.20;0.20;;;;;;;2.01;75.36;97297.59;6244977;23;20131;-74
2021/12/05 01:09:44;;;;;;;0.30;0.30;;;;;;;2.11;75.02;97316.06;6245344;23;20015;-69
2021/12/05 01:14:59;;;;;;;0.30;0.30;;;;;;;2.18;75.14;97321.44;6244997;23;20011;-73
2021/12/05 01:17:33;;;;;;;0.20;0.20;;;;;;;2.06;75.31;97313.19;6244823;23;20441;-70
2021/12/05 01:19:59;;;;;;;0.30;0.30;;;;;;;1.86;75.40;97313.31;6247633;23;20020;-72
2021/12/05 01:22:27;;;;;;;0.20;0.20;;;;;;;1.64;75.95;97297.38;6219239;23;20239;-76
2021/12/05 01:25:19;;;;;;;0.30;0.30;;;;;;;1.57;76.42;97302.78;6247060;23;20014;-74
2021/12/05 01:30:42;;;;;;;0.30;0.30;;;;;;;1.40;76.53;97313.28;6259687;23;20023;-74
2021/12/05 01:33:38;;;;;;;0.20;0.20;;;;;;;1.38;76.63;97309.97;6259872;23;20008;-75
2021/12/05 01:36:12;;;;;;;0.20;0.20;;;;;;;1.40;76.36;97307.88;6257253;23;20014;-75
2021/12/05 01:47:40;;;;;;;0.20;0.20;;;;;;;1.29;76.18;97308.50;6268717;23;20011;-73
2021/12/05 02:07:43;;;;;;;0.20;0.20;;;;;;;1.20;76.08;97316.03;6245553;23;20015;-71
2021/12/05 02:43:08;;;;;;;0.20;0.20;;;;;;;0.91;76.52;97346.22;6252355;23;20062;-81
2021/12/05 02:45:41;;;;;;;0.52;0.52;;;;;;;0.86;76.60;97338.75;6249989;22;21089;-80
2021/12/05 02:48:08;;;;;;;2.38;0.50;;;;;;;0.94;76.60;97349.34;6253656;23;20341;-78
2021/12/05 02:50:36;;;;;;;0.30;0.30;;;;;;;0.95;76.61;97345.59;6252108;23;20065;-77
2021/12/05 02:53:17;;;;;;;0.30;0.30;;;;;;;0.96;76.53;97349.16;6250039;23;20012;-91
2021/12/05 02:55:44;;;;;;;0.30;0.30;;;;;;;0.91;76.58;97351.63;6248522;23;20038;-84
2021/12/05 02:58:25;;;;;;;0.30;0.30;;;;;;;0.85;76.67;97345.19;6248633;23;20342;-79
2021/12/05 03:03:32;;;;;;;0.20;0.20;;;;;;;0.70;77.00;97342.69;6247140;23;20353;-71
2021/12/05 03:06:13;;;;;;;1.55;1.40;;;;;;;0.65;77.09;97342.50;6246242;23;20138;-70
2021/12/05 03:08:39;;;;;;;0.20;0.20;;;;;;;0.62;77.05;97353.69;6246210;23;20019;-71
2021/12/05 03:11:05;;;;;;;0.98;0.82;;;;;;;0.58;77.14;97360.59;6246122;23;20016;-73
2021/12/05 03:13:40;;;;;;;0.68;0.68;;;;;;;0.61;77.28;97355.59;6247059;23;20012;-71
2021/12/05 03:16:08;;;;;;;0.30;0.30;;;;;;;0.66;77.10;97353.09;6247997;23;20003;-71
2021/12/05 03:18:34;;;;;;;0.32;0.32;;;;;;;0.71;77.07;97368.69;6247256;23;20008;-71
2021/12/05 03:21:03;;;;;;;0.20;0.20;;;;;;;0.79;76.91;97375.75;6245888;23;20004;-71
2021/12/05 03:23:30;;;;;;;0.30;0.30;;;;;;;0.84;76.77;97375.94;6245961;23;20345;-73
2021/12/05 03:25:56;;;;;;;0.30;0.30;;;;;;;0.92;76.79;97386.56;6245949;23;20139;-69
2021/12/05 03:28:22;;;;;;;0.20;0.20;;;;;;;0.96;76.55;97382.41;6245834;23;20043;-69
2021/12/05 03:30:48;;;;;;;0.30;0.30;;;;;;;1.04;76.37;97389.47;6244793;23;20023;-69
2021/12/05 03:33:14;;;;;;;0.20;0.20;;;;;;;1.14;76.37;97399.88;6245744;23;20008;-70
2021/12/05 03:35:40;;;;;;;0.40;0.40;;;;;;;1.17;76.07;97410.25;6245588;23;20004;-70
2021/12/05 03:38:06;;;;;;;0.30;0.30;;;;;;;1.20;76.44;97407.13;6218806;23;20445;-69
2021/12/05 03:40:33;;;;;;;0.30;0.30;;;;;;;1.19;76.18;97405.47;6245784;23;20015;-74
2021/12/05 03:43:01;;;;;;;0.20;0.20;;;;;;;1.08;75.95;97412.34;6248039;23;20015;-74
2021/12/05 03:45:32;;;;;;;0.30;0.30;;;;;;;1.02;76.19;97419.41;6249945;23;20074;-74
2021/12/05 03:47:58;;;;;;;0.40;0.40;;;;;;;0.95;76.28;97423.97;6253653;23;20091;-77
2021/12/05 03:50:25;;;;;;;0.40;0.40;;;;;;;0.87;76.47;97421.50;6246178;23;20051;-74
2021/12/05 03:52:51;;;;;;;0.30;0.30;;;;;;;0.82;76.55;97413.97;6245971;23;20012;-72
2021/12/05 03:55:17;;;;;;;0.43;0.43;;;;;;;0.80;76.18;97415.25;6246039;23;20087;-71
2021/12/05 03:57:43;;;;;;;0.45;0.45;;;;;;;0.82;76.49;97410.47;6245283;23;20015;-75
2021/12/05 04:00:27;;;;;;;0.40;0.40;;;;;;;0.80;76.36;97416.06;6245334;23;20012;-74
2021/12/05 04:02:55;;;;;;;0.30;0.30;;;;;;;0.76;76.37;97425.63;6218959;23;20015;-74
2021/12/05 04:05:23;;;;;;;0.40;0.40;;;;;;;0.74;76.48;97432.25;6245791;23;20011;-74
2021/12/05 04:07:49;;;;;;;0.75;0.68;;;;;;;0.71;76.38;97433.53;6245632;23;20058;-71
2021/12/05 04:10:15;;;;;;;0.50;0.50;;;;;;;0.69;76.15;97436.44;6245183;23;20008;-70
2021/12/05 04:12:42;;;;;;;0.30;0.30;;;;;;;0.68;76.34;97440.16;6245948;23;20345;-71
2021/12/05 04:15:11;;;;;;;0.85;0.45;;;;;;;0.73;76.16;97447.66;6245560;23;20486;-73
2021/12/05 04:17:39;;;;;;;0.43;0.43;;;;;;;0.81;76.00;97446.63;6245667;23;20044;-72
2021/12/05 04:20:06;;;;;;;0.63;0.60;;;;;;;0.84;75.69;97447.06;6247186;23;20456;-76
2021/12/05 04:22:32;;;;;;;0.57;0.57;;;;;;;0.83;75.82;97453.47;6247019;23;20008;-75
2021/12/05 04:24:58;;;;;;;0.60;0.60;;;;;;;0.81;75.79;97450.16;6248196;23;20061;-73
2021/12/05 04:27:24;;;;;;;0.35;0.35;;;;;;;0.83;75.77;97445.38;6247986;23;20070;-86
2021/12/05 04:29:50;;;;;;;1.40;1.00;;;;;;;0.86;75.50;97452.25;6219844;23;20436;-79
2021/12/05 04:32:15;;;;;;;3.70;0.93;;;;;;;0.87;75.39;97457.44;6245868;23;20008;-75
2021/12/05 04:34:41;;;;;;;0.70;0.60;;;;;;;0.92;75.51;97456.00;6245250;23;20349;-76
2021/12/05 04:37:07;;;;;;;0.43;0.43;;;;;;;0.96;75.36;97473.47;6246409;23;20101;-79
2021/12/05 04:39:33;;;;;;;1.17;1.00;;;;;;;0.96;75.21;97463.47;6251575;23;20012;-79
2021/12/05 04:41:59;;;;;;;1.23;0.30;;;;;;;0.98;75.06;97465.97;6245742;23;20085;-73
2021/12/05 04:44:26;;;;;;;0.47;0.47;;;;;;;1.00;74.96;97470.16;6246318;23;20008;-76
2021/12/05 04:46:52;;;;;;;0.30;0.30;;;;;;;1.00;74.89;97467.44;6246693;23;20361;-76
2021/12/05 04:49:18;;;;;;;0.20;0.20;;;;;;;1.00;74.64;97462.03;6246542;23;20021;-76
2021/12/05 04:51:45;;;;;;;0.25;0.25;;;;;;;0.99;74.63;97463.06;6246015;23;20015;-75
2021/12/05 04:54:14;;;;;;;1.23;0.85;;;;;;;0.99;74.53;97470.34;6245303;23;20008;-76
2021/12/05 04:56:41;;;;;;;0.30;0.30;;;;;;;0.97;74.55;97470.56;6246072;23;20007;-73
2021/12/05 04:59:14;;;;;;;0.43;0.30;;;;;;;0.98;74.43;97469.50;6246799;23;20091;-76
2021/12/05 05:01:42;;;;;;;1.40;1.20;;;;;;;0.99;74.37;97476.59;6248258;23;20019;-86
2021/12/05 05:04:19;;;;;;;0.20;0.20;;;;;;;0.97;74.25;97477.81;6247591;23;20015;-74
2021/12/05 05:06:45;;;;;;;0.75;0.40;;;;;;;0.94;74.34;97481.75;6247245;23;20008;-75
2021/12/05 05:09:11;;;;;;;0.30;0.30;;;;;;;0.93;74.17;97488.22;6245325;23;20345;-81
2021/12/05 05:11:38;;;;;;;0.30;0.30;;;;;;;0.89;74.34;97484.25;6218797;23;20007;-77
2021/12/05 05:14:06;;;;;;;0.30;0.30;;;;;;;0.86;74.34;97487.38;6245485;23;20083;-75
2021/12/05 05:16:32;;;;;;;0.60;0.60;;;;;;;0.86;74.37;97492.78;6243448;23;20008;-70
2021/12/05 05:19:00;;;;;;;0.60;0.60;;;;;;;0.90;74.23;97487.78;6245109;23;20015;-76
2021/12/05 05:24:46;;;;;;;0.30;0.30;;;;;;;0.85;74.02;97489.25;6251892;23;20011;-80
2021/12/05 05:46:39;;;;;;;0.50;0.50;;;;;;;0.97;73.49;97492.19;6182895;23;20059;-80
2021/12/05 05:49:24;;;;;;;0.40;0.40;;;;;;;0.94;73.54;97497.16;6245354;23;20036;-75
2021/12/05 05:51:50;;;;;;;0.50;0.50;;;;;;;0.91;73.57;97503.78;6243885;23;20349;-70
2021/12/05 05:54:18;;;;;;;0.30;0.30;;;;;;;0.91;73.38;97492.97;6216970;23;20008;-71
2021/12/05 05:56:45;;;;;;;2.33;0.60;;;;;;;0.90;73.48;97504.84;6244393;23;20019;-74
2021/12/05 05:59:23;;;;;;;0.30;0.30;;;;;;;0.90;73.50;97502.16;6218990;23;20326;-75
2021/12/05 06:04:14;;;;;;;0.35;0.35;;;;;;;0.91;73.24;97503.78;6246653;23;20012;-76
2021/12/05 06:06:40;;;;;;;0.30;0.30;;;;;;;0.93;73.20;97504.44;6247933;23;20008;-77
2021/12/05 06:09:08;;;;;;;0.70;0.70;;;;;;;0.94;73.03;97511.50;6246641;23;20015;-75
2021/12/05 06:11:34;;;;;;;0.30;0.30;;;;;;;0.98;73.11;97507.34;6246703;23;20395;-75
2021/12/05 06:14:01;;;;;;;0.30;0.30;;;;;;;1.00;72.98;97508.00;6245054;23;20015;-78
2021/12/05 06:16:27;;;;;;;0.20;0.20;;;;;;;1.00;72.97;97513.41;6243559;23;20036;-69
2021/12/05 06:18:53;;;;;;;0.40;0.35;;;;;;;1.03;72.91;97507.56;6243930;23;20008;-71
2021/12/05 06:21:18;;;;;;;0.50;0.50;;;;;;;1.11;72.72;97516.53;6243987;23;20095;-68
2021/12/05 06:23:45;;;;;;;0.90;0.40;;;;;;;1.15;72.70;97507.78;6243922;23;20012;-73
2021/12/05 06:26:14;;;;;;;0.95;0.50;;;;;;;1.19;72.29;97511.75;6216810;23;20524;-72
2021/12/05 06:28:46;;;;;;;0.47;0.47;;;;;;;1.17;72.41;97515.69;6243804;23;20037;-73
2021/12/05 06:31:37;;;;;;;0.73;0.65;;;;;;;1.11;72.50;97511.13;6242608;23;20019;-75
2021/12/05 06:42:51;;;;;;;0.30;0.30;;;;;;;1.02;72.13;97518.59;6251671;23;20099;-73
2021/12/05 06:48:02;;;;;;;1.45;0.63;;;;;;;1.17;71.68;97516.53;6244366;23;20027;-68
2021/12/05 06:50:28;;;;;;;0.30;0.30;;;;;;;1.25;71.48;97525.47;6243936;23;20019;-75
2021/12/05 06:52:54;;;;;;;0.47;0.47;;;;;;;1.31;71.14;97517.38;6243909;23;20012;-72
2021/12/05 06:55:20;;;;;;;2.33;0.85;;;;;;;1.34;71.04;97514.25;6217120;23;20000;-78
2021/12/05 06:57:47;;;;;;;1.05;1.05;;;;;;;1.34;71.00;97513.41;6244126;23;20429;-78
2021/12/05 07:00:18;;;;;;;0.57;0.57;;;;;;;1.34;71.01;97519.66;6210381;23;20429;-76
2021/12/05 07:02:44;;;;;;;0.32;0.32;;;;;;;1.34;70.97;97525.06;6241211;23;20380;-75
2021/12/05 07:05:56;;;;;;;0.20;0.20;;;;;;;1.36;70.95;97522.97;6243883;23;20008;-80
2021/12/05 07:07:58;;;;;;;0.28;0.28;;;;;;;1.45;70.53;97529.03;6233240;23;19996;-73
2021/12/05 07:10:25;;;;;;;0.20;0.20;;;;;;;1.51;70.62;97524.66;6244298;23;20016;-76
2021/12/05 07:42:41;;;;;;;0.53;0.53;;;;;;;1.05;71.22;97537.94;6247421;23;20050;-76
2021/12/05 07:45:11;;;;;;;0.52;0.50;;;;;;;1.07;71.15;97526.09;6245395;23;20318;-79
2021/12/05 07:47:44;;;;;;;0.30;0.30;;;;;;;1.09;71.21;97526.69;6245544;23;20031;-77
2021/12/05 07:50:11;;;;;;;0.40;0.30;;;;;;;1.14;71.18;97532.34;6247293;23;20020;-80
2021/12/05 07:52:42;;;;;;;0.55;0.55;;;;;;;1.20;70.94;97529.63;6246515;23;20012;-79
2021/12/05 07:55:24;;;;;;;0.30;0.30;;;;;;;1.25;70.58;97526.28;6248326;23;20008;-80
2021/12/05 08:00:28;;;;;;;0.35;0.35;;;;;;;1.17;70.74;97534.63;6250847;23;20326;-80
2021/12/05 08:16:36;;;;;;;0.30;0.30;;;;;;;0.75;71.74;97547.41;6247917;23;20061;-77
2021/12/05 08:19:02;;;;;;;0.30;0.30;;;;;;;0.67;71.78;97556.53;6247615;23;20014;-74
2021/12/05 08:21:28;;;;;;;0.93;0.68;;;;;;;0.65;71.65;97564.03;6245746;23;20035;-80
2021/12/05 08:23:53;;;;;;;0.30;0.30;;;;;;;0.65;71.72;97569.44;6249438;23;20440;-72
2021/12/05 08:26:26;;;;;;;0.20;0.20;;;;;;;0.69;71.54;97555.31;6250912;23;20004;-74
2021/12/05 08:35:00;;;;;;;0.43;0.43;;;;;;;0.92;70.74;97570.34;6236780;23;20088;-70
2021/12/05 08:40:36;;;;;;;0.30;0.30;;;;;;;0.87;70.74;97570.13;6263625;23;20019;-71
2021/12/05 08:43:26;;;;;;;0.30;0.30;;;;;;;0.81;70.85;97563.66;6262259;23;20607;-73
2021/12/05 09:39:47;;;;;;;0.30;0.30;;;;;;;0.44;70.70;97618.97;6244007;23;20012;-82
2021/12/05 10:13:23;;;;;;;0.30;0.30;;;;;;;-0.04;70.23;97657.50;6247230;23;20034;-78
2021/12/05 10:16:10;;;;;;;0.28;0.28;;;;;;;-0.23;70.73;97657.13;6245020;23;20090;-80
2021/12/05 10:27:14;;;;;;;0.50;0.50;;;;;;;-0.69;71.73;97667.44;6248900;23;20495;-85
2021/12/05 10:35:57;;;;;;;0.93;0.82;;;;;;;-0.53;71.33;97667.19;6244342;23;20015;-82
2021/12/05 10:38:32;;;;;;;0.80;0.77;;;;;;;-0.48;71.21;97669.34;6241852;23;20034;-79
2021/12/05 10:41:46;;;;;;;1.52;1.42;;;;;;;-0.42;71.17;97668.56;6245476;23;20039;-78
2021/12/05 10:43:52;;;;;;;0.50;0.50;;;;;;;-0.37;70.97;97679.59;6245072;23;20330;-79
2021/12/05 10:46:21;;;;;;;0.65;0.65;;;;;;;-0.38;71.17;97678.78;6248173;23;20004;-79
2021/12/05 10:49:00;;;;;;;3.83;1.50;;;;;;;-0.39;71.10;97676.28;6220459;23;20032;-81
2021/12/05 10:51:29;;;;;;;4.50;1.05;;;;;;;-0.40;71.17;97685.38;6250529;23;20012;-80
2021/12/05 10:53:56;;;;;;;0.60;0.50;;;;;;;-0.38;71.13;97686.03;6255288;23;20008;-77
2021/12/05 10:56:33;;;;;;;0.90;0.90;;;;;;;-0.34;71.02;97689.19;6227927;23;20004;-79
2021/12/05 10:59:09;;;;;;;2.83;1.48;;;;;;;-0.35;71.08;97693.75;6250005;23;20399;-78
2021/12/05 11:01:34;;;;;;;0.65;0.65;;;;;;;-0.44;71.17;97694.88;6246388;23;20012;-81
2021/12/05 11:04:13;;;;;;;0.70;0.50;;;;;;;-0.58;71.46;97710.91;6247904;23;20106;-81
2021/12/05 11:06:49;;;;;;;0.40;0.40;;;;;;;-0.75;71.67;97707.63;6248421;23;20011;-80
2021/12/05 11:09:20;;;;;;;0.80;0.80;;;;;;;-0.93;71.94;97708.06;6246261;23;20008;-77
2021/12/05 11:11:56;;;;;;;0.63;0.63;;;;;;;-1.03;72.27;97717.44;6246046;23;19957;-78
2021/12/05 11:14:25;;;;;;;1.00;0.68;;;;;;;-1.07;72.25;97717.00;6248358;23;20083;-78
2021/12/05 11:16:58;;;;;;;0.85;0.50;;;;;;;-1.14;72.22;97716.06;6246373;23;20410;-79
2021/12/05 11:19:25;;;;;;;0.60;0.60;;;;;;;-1.29;72.19;97724.16;6245764;23;20008;-79
2021/12/05 11:21:55;;;;;;;0.30;0.30;;;;;;;-1.53;72.73;97734.19;6221552;23;20008;-77
2021/12/05 11:24:29;;;;;;;0.40;0.40;;;;;;;-1.66;72.84;97724.03;6220566;23;20511;-77
2021/12/05 11:27:18;;;;;;;0.80;0.53;;;;;;;-1.70;72.89;97735.34;6245893;23;20020;-71
2021/12/05 11:29:49;;;;;;;2.20;1.30;;;;;;;-1.71;72.87;97741.75;6242833;23;20024;-81
2021/12/05 11:32:20;;;;;;;0.60;0.60;;;;;;;-1.71;72.69;97745.25;6215424;23;20012;-74
2021/12/05 11:34:47;;;;;;;0.30;0.30;;;;;;;-1.72;72.33;97746.31;6241519;23;20015;-69
2021/12/05 11:37:14;;;;;;;0.70;0.70;;;;;;;-1.79;72.56;97748.06;6242584;23;20445;-69
2021/12/05 11:39:40;;;;;;;0.40;0.40;;;;;;;-1.85;72.44;97751.47;6216210;23;20012;-70
2021/12/05 11:42:15;;;;;;;0.50;0.50;;;;;;;-1.96;72.62;97750.03;6242738;23;20019;-67
2021/12/05 11:44:41;;;;;;;0.40;0.40;;;;;;;-2.14;72.58;97743.13;6216939;23;20007;-67
2021/12/05 11:47:16;;;;;;;0.45;0.45;;;;;;;-2.21;73.02;97747.56;6216136;23;20496;-68
2021/12/05 11:49:42;;;;;;;3.20;0.88;;;;;;;-2.33;73.04;97744.44;6242895;23;20012;-71
2021/12/05 11:52:09;;;;;;;0.40;0.40;;;;;;;-2.43;72.90;97748.38;6242428;23;20042;-71
2021/12/05 11:54:45;;;;;;;0.50;0.50;;;;;;;-2.50;73.23;97759.84;6241501;23;20016;-69
2021/12/05 11:57:24;;;;;;;0.63;0.63;;;;;;;-2.55;73.25;97767.59;6243878;23;20019;-76
2021/12/05 12:00:05;;;;;;;0.70;0.50;;;;;;;-2.54;73.00;97777.34;6244897;23;20007;-77
2021/12/05 12:02:37;;;;;;;0.40;0.40;;;;;;;-2.45;72.87;97766.53;6244040;23;20008;-78
2021/12/05 12:05:14;;;;;;;0.30;0.30;;;;;;;-2.42;72.60;97774.25;6242062;23;20015;-75
2021/12/05 12:07:48;;;;;;;0.30;0.30;;;;;;;-2.48;72.51;97776.63;6210118;23;20008;-74
2021/12/05 12:10:20;;;;;;;0.77;0.75;;;;;;;-2.49;72.48;97787.56;6243347;23;20329;-70
2021/12/05 12:12:49;;;;;;;0.40;0.40;;;;;;;-2.50;72.40;97786.72;6243281;23;20440;-71
2021/12/05 12:15:16;;;;;;;0.45;0.45;;;;;;;-2.55;72.37;97794.47;6243367;23;20054;-70
2021/12/05 12:17:44;;;;;;;0.30;0.30;;;;;;;-2.62;72.41;97800.72;6243682;23;20463;-74
2021/12/05 12:20:12;;;;;;;0.30;0.30;;;;;;;-2.74;72.52;97794.91;6243291;23;20095;-71
2021/12/05 12:22:40;;;;;;;0.40;0.40;;;;;;;-2.80;72.63;97798.31;6244181;23;20016;-72
2021/12/05 12:25:11;;;;;;;0.50;0.50;;;;;;;-2.83;72.59;97797.66;6242860;23;20008;-69
2021/12/05 12:27:37;;;;;;;0.47;0.47;;;;;;;-2.86;72.75;97792.59;6216029;23;20341;-72
2021/12/05 12:30:08;;;;;;;0.60;0.60;;;;;;;-2.82;72.47;97793.94;6243374;23;20027;-73
2021/12/05 12:32:38;;;;;;;0.32;0.32;;;;;;;-2.71;72.28;97808.00;6244486;23;20441;-72
2021/12/05 12:35:09;;;;;;;0.40;0.40;;;;;;;-2.66;71.80;97808.31;6244527;23;20047;-72
2021/12/05 12:38:10;;;;;;;0.40;0.40;;;;;;;-2.58;71.80;97820.88;6243381;23;20016;-74
2021/12/05 12:40:43;;;;;;;1.02;0.90;;;;;;;-2.54;71.32;97823.03;6219693;23;20019;-71
2021/12/05 12:43:24;;;;;;;0.30;0.30;;;;;;;-2.51;71.33;97824.53;6217154;23;20019;-74
2021/12/05 12:45:49;;;;;;;0.30;0.30;;;;;;;-2.55;71.32;97826.72;6242947;23;20014;-74
2021/12/05 12:48:16;;;;;;;0.20;0.20;;;;;;;-2.53;71.26;97835.47;6242675;23;20087;-74
2021/12/05 12:50:51;;;;;;;2.65;0.75;;;;;;;-2.60;71.33;97845.25;6242231;23;20062;-78
2021/12/05 12:53:29;;;;;;;7.35;0.95;;;;;;;-2.85;71.74;97839.94;6243388;23;20463;-74
2021/12/05 12:56:18;;;;;;;0.30;0.30;;;;;;;-3.08;72.17;97830.97;6218014;23;20012;-71
2021/12/05 12:59:01;;;;;;;1.05;0.88;;;;;;;-3.29;72.66;97829.66;6242031;23;20012;-70
2021/12/05 13:10:06;;;;;;;0.65;0.60;;;;;;;-3.66;73.11;97833.75;6243008;23;20039;-70
2021/12/05 13:12:51;;;;;;;0.70;0.70;;;;;;;-3.67;72.72;97841.97;6244027;23;20062;-72
2021/12/05 13:15:25;;;;;;;;;;;;;;;-3.78;72.89;97841.28;6241007;23;20111;-76
2021/12/05 13:18:05;;;;;;;2.25;1.00;;;;;;;-3.90;72.95;97845.28;6245396;23;19918;-74
2021/12/05 13:20:42;;;;;;;3.70;0.57;;;;;;;-3.87;72.85;97842.31;6245306;23;20437;-75
2021/12/05 13:23:28;;;;;;;0.60;0.60;;;;;;;-3.76;72.53;97843.81;6249852;23;20008;-77
2021/12/05 13:26:23;;;;;;;0.50;0.50;;;;;;;-3.74;72.18;97844.47;6250514;23;20445;-76
2021/12/05 13:29:10;;;;;;;0.52;0.52;;;;;;;-3.80;72.25;97848.66;6245163;23;20047;-74
2021/12/05 13:31:39;;;;;;;0.35;0.35;;;;;;;-3.82;72.33;97848.00;6243179;23;20012;-77
2021/12/05 13:34:26;;;;;;;0.40;0.40;;;;;;;-3.84;72.38;97854.53;6242395;23;20096;-75
2021/12/05 13:36:56;;;;;;;1.08;0.60;;;;;;;-3.91;72.44;97860.56;6242983;23;20008;-75
2021/12/05 13:39:40;;;;;;;0.30;0.30;;;;;;;-3.99;72.48;97863.25;6243166;23;20028;-76
2021/12/05 13:42:12;;;;;;;0.40;0.40;;;;;;;-4.05;72.52;97856.69;6245414;23;20064;-77
2021/12/05 13:45:25;;;;;;;0.40;0.40;;;;;;;-4.04;72.61;97862.88;6245529;23;20020;-75
2021/12/05 13:47:51;;;;;;;0.30;0.30;;;;;;;-4.04;72.41;97862.88;6218245;23;20015;-77
2021/12/05 13:52:45;;;;;;;0.30;0.30;;;;;;;-4.20;72.70;97869.06;6244659;23;20440;-75
2021/12/05 13:55:29;;;;;;;0.60;0.60;;;;;;;-4.16;72.54;97866.91;6244796;23;20062;-76
2021/12/05 13:58:15;;;;;;;0.30;0.30;;;;;;;-4.11;72.38;97867.22;6244351;23;20356;-74
2021/12/05 14:01:03;;;;;;;0.85;0.85;;;;;;;-4.00;72.04;97868.78;6244097;23;20019;-79
2021/12/05 14:03:53;;;;;;;1.10;0.55;;;;;;;-3.89;71.69;97869.28;6244789;23;20015;-78
2021/12/05 14:07:01;;;;;;;0.30;0.30;;;;;;;-3.77;71.48;97875.16;6243938;23;20008;-77
2021/12/05 14:09:43;;;;;;;0.40;0.40;;;;;;;-3.73;71.03;97872.97;6244946;23;20020;-76
2021/12/05 14:12:19;;;;;;;0.30;0.30;;;;;;;-3.82;71.36;97871.31;6244612;23;20015;-75
2021/12/05 14:14:47;;;;;;;0.85;0.82;;;;;;;-3.86;71.58;97868.09;6246085;23;20039;-78
2021/12/05 14:17:55;;;;;;;1.10;1.10;;;;;;;-3.91;71.72;97873.13;6247217;23;20018;-74
2021/12/05 14:21:00;;;;;;;0.68;0.50;;;;;;;-3.91;71.66;97868.59;6246977;23;20054;-75
2021/12/05 14:30:54;;;;;;;0.63;0.63;;;;;;;-3.94;71.58;97885.03;6240294;23;20038;-76
2021/12/05 14:33:20;;;;;;;1.23;0.77;;;;;;;-3.95;71.71;97883.34;6248341;23;20023;-81
2021/12/05 14:35:47;;;;;;;0.63;0.63;;;;;;;-4.00;71.75;97888.38;6246849;23;20452;-77
2021/12/05 14:38:15;;;;;;;0.75;0.75;;;;;;;-3.96;71.92;97895.09;6220255;23;20015;-79
2021/12/05 14:40:41;;;;;;;0.40;0.40;;;;;;;-3.92;71.79;97893.72;6247397;23;20058;-76
2021/12/05 14:43:10;;;;;;;0.30;0.30;;;;;;;-3.86;71.57;97889.56;6220203;23;20008;-76
2021/12/05 14:45:41;;;;;;;0.30;0.30;;;;;;;-3.82;71.45;97893.59;6246925;23;20527;-76
2021/12/05 14:48:12;;;;;;;3.08;0.55;;;;;;;-3.77;71.39;97896.63;6220241;23;20008;-74
2021/12/05 14:50:40;;;;;;;4.28;0.73;;;;;;;-3.77;71.37;97909.19;6220628;23;20039;-75
2021/12/05 14:53:09;;;;;;;0.43;0.43;;;;;;;-3.76;71.43;97908.19;6247591;23;20449;-78
2021/12/05 14:55:35;;;;;;;0.30;0.30;;;;;;;-3.80;71.42;97914.88;6248767;23;20018;-74
2021/12/05 14:58:08;;;;;;;0.55;0.55;;;;;;;-3.84;71.52;97914.38;6245881;23;20389;-77
2021/12/05 15:00:38;;;;;;;0.82;0.82;;;;;;;-3.87;71.74;97922.78;6219092;23;20008;-75
2021/12/05 15:03:04;;;;;;;0.60;0.60;;;;;;;-3.93;71.84;97923.41;6246631;23;20031;-76
2021/12/05 15:05:31;;;;;;;0.43;0.43;;;;;;;-4.10;71.95;97934.09;6219917;23;20047;-77
2021/12/05 15:08:03;;;;;;;0.50;0.50;;;;;;;-4.34;72.39;97924.16;6219376;23;20012;-74
2021/12/05 15:10:29;;;;;;;0.30;0.30;;;;;;;-4.53;72.64;97933.28;6246085;23;20012;-75
2021/12/05 15:12:55;;;;;;;0.30;0.30;;;;;;;-4.88;73.06;97931.59;6219860;23;20012;-75
2021/12/05 15:15:24;;;;;;;0.30;0.30;;;;;;;-5.23;73.34;97936.03;6246350;23;20082;-74
2021/12/05 15:17:49;;;;;;;0.30;0.30;;;;;;;-5.44;74.09;97931.03;6247562;23;20012;-79
2021/12/05 15:20:18;;;;;;;0.30;0.30;;;;;;;-5.65;74.28;97938.38;6248365;23;20428;-78
2021/12/05 15:22:48;;;;;;;0.60;0.60;;;;;;;-5.71;74.34;97925.63;6247997;23;20015;-77
2021/12/05 15:25:18;;;;;;;0.43;0.43;;;;;;;-5.73;74.10;97921.41;6249685;23;20012;-77
2021/12/05 15:27:45;;;;;;;0.90;0.68;;;;;;;-5.88;74.11;97931.81;6221792;23;20015;-75
2021/12/05 15:30:23;;;;;;;0.50;0.50;;;;;;;-6.01;74.27;97935.75;6250734;23;20060;-72
2021/12/05 15:33:01;;;;;;;2.05;1.25;;;;;;;-6.09;74.13;97935.66;6248757;23;20019;-73
2021/12/05 15:35:28;;;;;;;0.40;0.40;;;;;;;-6.19;74.06;97941.03;6249515;23;20042;-76
2021/12/05 15:37:58;;;;;;;0.43;0.43;;;;;;;-6.25;74.04;97933.63;6254645;23;20012;-75
2021/12/05 15:40:27;;;;;;;0.40;0.40;;;;;;;-6.33;73.84;97933.53;6253814;23;20019;-74
2021/12/05 15:42:59;;;;;;;0.30;0.30;;;;;;;-6.40;73.82;97943.97;6263086;23;20067;-73
2021/12/05 15:45:25;;;;;;;0.40;0.40;;;;;;;-6.40;73.62;97933.31;6265883;23;20012;-76
2021/12/05 15:47:51;;;;;;;0.30;0.30;;;;;;;-6.41;73.48;97936.94;6264876;23;20015;-76
2021/12/05 15:50:20;;;;;;;0.47;0.47;;;;;;;-6.38;73.17;97936.66;6262654;23;20127;-76
2021/12/05 15:52:55;;;;;;;0.30;0.30;;;;;;;-6.36;72.93;97932.03;6251586;23;20012;-79
2021/12/05 15:55:35;;;;;;;0.30;0.30;;;;;;;-6.34;72.74;97942.56;6247210;23;20012;-78
2021/12/05 15:58:08;;;;;;;1.55;0.60;;;;;;;-6.33;72.48;97938.88;6236825;23;20012;-71
2021/12/05 16:00:41;;;;;;;0.40;0.40;;;;;;;-6.35;72.34;97941.69;6245793;23;20012;-73
2021/12/05 16:03:09;;;;;;;0.32;0.32;;;;;;;-6.39;72.28;97945.69;6247305;23;20042;-73
2021/12/05 16:05:37;;;;;;;0.40;0.40;;;;;;;-6.38;72.35;97944.66;6246155;23;20012;-74
2021/12/05 16:08:07;;;;;;;0.55;0.55;;;;;;;-6.38;72.25;97947.34;6248443;23;20012;-83
2021/12/05 16:10:37;;;;;;;0.40;0.40;;;;;;;-6.37;72.46;97942.84;6222597;23;20016;-78
2021/12/05 16:13:15;;;;;;;0.50;0.50;;;;;;;-6.24;72.22;97955.84;6224198;23;20008;-86
2021/12/05 16:15:44;;;;;;;0.70;0.70;;;;;;;-6.10;71.83;97960.69;6218547;23;20099;-81
2021/12/05 16:18:11;;;;;;;0.45;0.45;;;;;;;-5.94;71.39;97959.16;6219094;23;20016;-76
2021/12/05 16:20:46;;;;;;;0.43;0.43;;;;;;;-5.97;71.65;97954.97;6217805;23;20036;-80
2021/12/05 16:23:17;;;;;;;0.93;0.93;;;;;;;-6.00;71.62;97953.44;6245091;23;20353;-86
2021/12/05 16:26:01;;;;;;;0.68;0.68;;;;;;;-5.93;71.52;97944.78;6246228;23;20008;-81
2021/12/05 16:28:35;;;;;;;1.35;0.60;;;;;;;-5.91;71.24;97940.13;6249235;23;20012;-80
2021/12/05 16:31:15;;;;;;;0.75;0.75;;;;;;;-5.91;71.27;97929.44;6243767;23;20024;-78
2021/12/05 16:33:45;;;;;;;0.45;0.45;;;;;;;-5.82;71.25;97944.56;6243309;23;20012;-78
2021/12/05 16:36:12;;;;;;;0.30;0.30;;;;;;;-5.77;71.27;97947.63;6217033;23;20015;-76
2021/12/05 16:38:42;;;;;;;0.52;0.40;;;;;;;-5.72;71.19;97949.84;6243894;23;20008;-88
2021/12/05 16:41:21;;;;;;;0.63;0.63;;;;;;;-5.62;71.02;97947.94;6223871;23;20008;-86
2021/12/05 16:43:54;;;;;;;1.38;0.52;;;;;;;-5.66;71.16;97942.03;6247085;23;20016;-79
2021/12/05 16:46:31;;;;;;;0.32;0.32;;;;;;;-5.70;71.49;97964.72;6249184;23;20026;-78
2021/12/05 16:48:58;;;;;;;0.50;0.50;;;;;;;-5.69;71.39;97961.06;6247467;23;20016;-81
2021/12/05 16:51:28;;;;;;;0.30;0.30;;;;;;;-5.71;71.24;97954.19;6217411;23;20507;-81
2021/12/05 16:54:01;;;;;;;0.30;0.30;;;;;;;-5.73;71.48;97962.34;6243169;23;20012;-82
2021/12/05 16:56:43;;;;;;;0.57;0.57;;;;;;;-5.66;71.44;97957.25;6216674;23;20035;-79
2021/12/05 16:59:37;;;;;;;0.68;0.68;;;;;;;-5.56;71.06;97970.56;6243603;23;20364;-81
2021/12/05 17:02:24;;;;;;;1.45;0.55;;;;;;;-5.61;71.14;97968.31;6228828;23;20022;-78
2021/12/05 17:05:13;;;;;;;0.45;0.45;;;;;;;-5.63;71.24;97964.97;6215586;23;20015;-78
2021/12/05 17:08:12;;;;;;;0.43;0.43;;;;;;;-5.76;71.31;97962.66;6244332;23;20563;-77
2021/12/05 17:10:44;;;;;;;0.40;0.40;;;;;;;-5.84;71.39;97973.31;6243881;23;20470;-78
2021/12/05 17:13:15;;;;;;;3.50;0.75;;;;;;;-6.01;71.75;97981.19;6215153;23;20012;-76
2021/12/05 17:15:58;;;;;;;0.45;0.45;;;;;;;-6.22;72.00;97983.25;6215756;23;20012;-81
2021/12/05 17:18:28;;;;;;;4.78;0.80;;;;;;;-6.35;72.37;97988.94;6243413;23;20034;-82
2021/12/05 17:20:58;;;;;;;0.50;0.50;;;;;;;-6.42;72.52;97986.03;6250214;23;20007;-82
2021/12/05 17:23:55;;;;;;;0.55;0.55;;;;;;;-6.62;72.55;97973.75;6218518;23;20069;-79
2021/12/05 17:26:26;;;;;;;0.32;0.32;;;;;;;-6.82;72.94;97978.31;6218710;23;20008;-82
2021/12/05 17:29:34;;;;;;;0.60;0.60;;;;;;;-6.86;73.02;97975.06;6250800;23;20349;-84
2021/12/05 17:32:12;;;;;;;0.60;0.60;;;;;;;-6.91;72.87;97988.84;6218676;23;20453;-78
2021/12/05 17:34:50;;;;;;;0.95;0.88;;;;;;;-6.84;72.46;97985.63;6244468;23;20008;-79